Terminal Aerodrome Forecast
Issued by NWS

Home | Current Version | Previous Version | Text Only | Print | Product List | Glossary On
Versions: 1 2 3 4 5 6 7 8 9 10 11 12 13 14 15 16 17 18 19
171
FTUS41 KBTV 051739
TAFSLK
TAF
KSLK 051739Z 0518/0618 31008KT P6SM SCT025 BKN035
      TEMPO 0518/0521 -SHSN BKN025
     FM052200 27006KT P6SM SCT035
     FM060700 22005KT P6SM VCSH OVC025
     FM061600 23010G17KT P6SM VCSH OVC025=

USA.gov is the U.S. government's official web portal to all federal, state and local government web resources and services.